Kurtz, Indiana
Current Conditions -  °F | °C
As of 3:53 PM on Sunday 21 Dec 2014 (Local Time) from KBMG Reporting Station
Clear Clear  
Wind Chill: 32°   Ceiling: Unl
Heat Index: 37°   Visibility: 10mi
Dew Point: 29°   Wind: 7mph
Humidity: 73%   Direction: 110°ESE
Pressure: 30.14"   Gusts: NA
Location:  38.96°N, 86.2°W
Report Text: KBMG 212053Z 11006KT 10SM CLR 03/M02 A3014 RMK AO2 SLP214 T00281017 56022
Loading
Personal Weather Stations






























Interactive Weather Map New forecast layout! Learn more

10-Day Weather Forecast

Advertisements
Track Severe Weather on mobile